Historyczne dane pomiarowe

Dodano dane terminowe – wersja testowa.

Dane z okresu 1951-2019

Wersja bazy: 1.34 [2019-03-16, lista zmian], aktualizacja planowana na 2019-04-15

Dane meteo z obszaru Polski uzyskane na podstawie danych udostępnionych przez Instytut Meteorologii i Gospodarki Wodnej – Państwowy Instytut Badawczy.

 

Wybierz Datę:    

       

TemperaturaWilgotnośćZachmurzenieWiatrCiśnienieWidzialnośćZjawiska
 Data    tng td wb rh cc ccl cl cm ch dir g1 g2 mslp ppp      
1994-06-23 00:00:00 16.8--- 8.6 12.359wxwxwx5wx--1019.9 979.5 0.0---wxw1
1994-06-23 01:00:00 16.5--- 8.7 12.260wxwxwx1wx--1020.4 979.9----wx
1994-06-23 02:00:00 16.2--- 9.0 12.262wxwxwx2wx--1020.8 980.3----wx
1994-06-23 03:00:00 14.6--- 7.7 10.963wxwxwx4wx--1021.4 980.6----wx
1994-06-23 04:00:00 14.6--- 7.7 10.963wxwxwx4wx--1022.0 981.2----wx
1994-06-23 05:00:00 13.5--- 5.7 9.559wxwxwx3wx--1022.5 981.5----wx
1994-06-23 06:00:00 13.2--- 5.0 9.158wxwxwxwx4wx--1022.6 981.6 0.0---wx
1994-06-23 07:00:00 14.8--- 5.7 10.154wxwxwxwx4wx--1022.2 981.4----wx
1994-06-23 08:00:00 15.2--- 3.4 9.445wxwxwx8wx--1022.1 981.4----wx
1994-06-23 09:00:00 16.4--- 5.6 10.849wxwxwx9wx--1021.8 981.3----wx
1994-06-23 10:00:00 16.7--- 4.8 10.645wxwxwx6wx--1021.8 981.3----wx
1994-06-23 11:00:00 18.0--- 5.1 11.343wxwxwx7wx--1021.8 981.5----wx
1994-06-23 12:00:00 18.2--- 4.6 11.241wxwxwxwx6wx13-1021.7 981.4 0.0---wx
1994-06-23 13:00:00 18.1--- 4.7 11.241wxwxwxwx8wx--1021.4 981.1----wx
1994-06-23 14:00:00 18.2--- 4.6 11.241wxwxwxwx6wx--1021.6 981.3----wx
1994-06-23 15:00:00 18.0--- 3.2 10.637wxwxwxwx6wx--1021.5 981.2----wx
1994-06-23 16:00:00 17.9--- 3.3 10.638wxwxwxwx5wx--1021.3 981.0----wx
1994-06-23 17:00:00 17.2--- 3.4 10.340wxwxwx4wx--1021.6 981.2----wx
1994-06-23 18:00:00 16.8--- 3.3 10.141wxwxwx5wx--1021.6 981.1 0.0---wx
1994-06-23 19:00:00 15.1--- 4.6 9.849wxwxwx2wx--1022.1 981.4----wx
1994-06-23 20:00:00 13.2--- 3.5 8.552wxwxwxwx0wx--1022.6 981.6----wx
1994-06-23 21:00:00 11.4--- 4.0 7.860wxwxwxwx0wx--1023.0 981.7----wx
1994-06-23 22:00:00 8.6--- 4.0 6.473wxwxwx0wx--1023.6 981.9----wx
1994-06-23 23:00:00 7.2--- 4.7 6.084wxwxwx0wx--1023.9 982.0----wx

 

Źródłem pochodzenia danych jest Instytut Meteorologii i Gospodarki Wodnej – Państwowy Instytut Badawczy. Dane Instytutu Meteorologii i Gospodarki Wodnej – Państwowego Instytutu Badawczego zostały przetworzone.

Dane źródłowe można odnaleźć na stronie https://dane.imgw.pl